sensor_id;sensor_type;location;lat;lon;timestamp;temperature;humidity
69731;SHT31;56996;48.138;11.538;2024-03-08T00:02:15;2.72;72.28
69731;SHT31;56996;48.138;11.538;2024-03-08T00:04:41;2.69;72.39
69731;SHT31;56996;48.138;11.538;2024-03-08T00:07:08;2.69;72.26
69731;SHT31;56996;48.138;11.538;2024-03-08T00:09:35;2.68;72.21
69731;SHT31;56996;48.138;11.538;2024-03-08T00:12:02;2.65;72.17
69731;SHT31;56996;48.138;11.538;2024-03-08T00:14:30;2.65;72.09
69731;SHT31;56996;48.138;11.538;2024-03-08T00:16:56;2.62;72.10
69731;SHT31;56996;48.138;11.538;2024-03-08T00:19:23;2.61;72.06
69731;SHT31;56996;48.138;11.538;2024-03-08T00:21:50;2.59;72.07
69731;SHT31;56996;48.138;11.538;2024-03-08T00:24:17;2.56;72.21
69731;SHT31;56996;48.138;11.538;2024-03-08T00:26:43;2.54;72.20
69731;SHT31;56996;48.138;11.538;2024-03-08T00:29:10;2.52;72.23
69731;SHT31;56996;48.138;11.538;2024-03-08T00:31:37;2.51;72.30
69731;SHT31;56996;48.138;11.538;2024-03-08T00:34:04;2.47;72.53
69731;SHT31;56996;48.138;11.538;2024-03-08T00:36:30;2.45;72.46
69731;SHT31;56996;48.138;11.538;2024-03-08T00:38:57;2.45;72.49
69731;SHT31;56996;48.138;11.538;2024-03-08T00:41:24;2.45;72.49
69731;SHT31;56996;48.138;11.538;2024-03-08T00:43:53;2.44;72.59
69731;SHT31;56996;48.138;11.538;2024-03-08T00:46:19;2.41;72.70
69731;SHT31;56996;48.138;11.538;2024-03-08T00:48:46;2.40;72.66
69731;SHT31;56996;48.138;11.538;2024-03-08T00:51:13;2.39;72.67
69731;SHT31;56996;48.138;11.538;2024-03-08T00:53:41;2.40;72.78
69731;SHT31;56996;48.138;11.538;2024-03-08T00:56:09;2.38;72.82
69731;SHT31;56996;48.138;11.538;2024-03-08T00:58:39;2.38;72.83
69731;SHT31;56996;48.138;11.538;2024-03-08T01:01:06;2.38;72.87
69731;SHT31;56996;48.138;11.538;2024-03-08T01:03:33;2.37;72.87
69731;SHT31;56996;48.138;11.538;2024-03-08T01:06:00;2.35;72.88
69731;SHT31;56996;48.138;11.538;2024-03-08T01:08:27;2.34;72.85
69731;SHT31;56996;48.138;11.538;2024-03-08T01:10:54;2.34;72.95
69731;SHT31;56996;48.138;11.538;2024-03-08T01:13:21;2.32;73.09
69731;SHT31;56996;48.138;11.538;2024-03-08T01:15:47;2.26;73.52
69731;SHT31;56996;48.138;11.538;2024-03-08T01:18:14;2.24;73.30
69731;SHT31;56996;48.138;11.538;2024-03-08T01:20:41;2.23;73.62
69731;SHT31;56996;48.138;11.538;2024-03-08T01:23:08;2.19;73.55
69731;SHT31;56996;48.138;11.538;2024-03-08T01:25:35;2.20;73.42
69731;SHT31;56996;48.138;11.538;2024-03-08T01:28:02;2.19;73.62
69731;SHT31;56996;48.138;11.538;2024-03-08T01:30:29;2.18;73.61
69731;SHT31;56996;48.138;11.538;2024-03-08T01:32:59;2.15;73.84
69731;SHT31;56996;48.138;11.538;2024-03-08T01:35:26;2.12;73.83
69731;SHT31;56996;48.138;11.538;2024-03-08T01:37:53;2.12;73.85
69731;SHT31;56996;48.138;11.538;2024-03-08T01:40:20;2.13;73.94
69731;SHT31;56996;48.138;11.538;2024-03-08T01:42:47;2.11;74.00
69731;SHT31;56996;48.138;11.538;2024-03-08T01:45:14;2.09;74.00
69731;SHT31;56996;48.138;11.538;2024-03-08T01:47:41;2.08;74.14
69731;SHT31;56996;48.138;11.538;2024-03-08T01:50:08;2.07;74.24
69731;SHT31;56996;48.138;11.538;2024-03-08T01:52:35;2.05;74.34
69731;SHT31;56996;48.138;11.538;2024-03-08T01:55:03;2.02;74.44
69731;SHT31;56996;48.138;11.538;2024-03-08T01:57:33;2.01;74.64
69731;SHT31;56996;48.138;11.538;2024-03-08T02:00:03;1.99;74.57
69731;SHT31;56996;48.138;11.538;2024-03-08T02:02:32;1.97;74.57
69731;SHT31;56996;48.138;11.538;2024-03-08T02:05:01;1.97;74.65
69731;SHT31;56996;48.138;11.538;2024-03-08T02:07:28;1.93;74.72
69731;SHT31;56996;48.138;11.538;2024-03-08T02:09:54;1.91;74.81
69731;SHT31;56996;48.138;11.538;2024-03-08T02:12:21;1.90;74.87
69731;SHT31;56996;48.138;11.538;2024-03-08T02:14:48;1.89;74.97
69731;SHT31;56996;48.138;11.538;2024-03-08T02:17:15;1.87;75.25
69731;SHT31;56996;48.138;11.538;2024-03-08T02:19:41;1.84;75.20
69731;SHT31;56996;48.138;11.538;2024-03-08T02:22:08;1.83;75.19
69731;SHT31;56996;48.138;11.538;2024-03-08T02:24:35;1.84;75.12
69731;SHT31;56996;48.138;11.538;2024-03-08T02:27:02;1.83;75.21
69731;SHT31;56996;48.138;11.538;2024-03-08T02:29:29;1.82;75.40
69731;SHT31;56996;48.138;11.538;2024-03-08T02:31:57;1.82;75.29
69731;SHT31;56996;48.138;11.538;2024-03-08T02:34:24;1.82;75.32
69731;SHT31;56996;48.138;11.538;2024-03-08T02:36:51;1.83;75.30
69731;SHT31;56996;48.138;11.538;2024-03-08T02:39:18;1.85;75.35
69731;SHT31;56996;48.138;11.538;2024-03-08T02:41:46;1.84;75.33
69731;SHT31;56996;48.138;11.538;2024-03-08T02:44:13;1.83;75.31
69731;SHT31;56996;48.138;11.538;2024-03-08T02:46:41;1.82;75.30
69731;SHT31;56996;48.138;11.538;2024-03-08T02:49:07;1.81;75.33
69731;SHT31;56996;48.138;11.538;2024-03-08T02:51:34;1.81;75.45
69731;SHT31;56996;48.138;11.538;2024-03-08T02:54:02;1.80;75.58
69731;SHT31;56996;48.138;11.538;2024-03-08T02:56:30;1.78;75.60
69731;SHT31;56996;48.138;11.538;2024-03-08T02:59:01;1.76;75.66
69731;SHT31;56996;48.138;11.538;2024-03-08T03:01:28;1.74;75.82
69731;SHT31;56996;48.138;11.538;2024-03-08T03:03:55;1.71;75.88
69731;SHT31;56996;48.138;11.538;2024-03-08T03:06:22;1.71;75.90
69731;SHT31;56996;48.138;11.538;2024-03-08T03:08:48;1.71;75.82
69731;SHT31;56996;48.138;11.538;2024-03-08T03:11:17;1.71;75.85
69731;SHT31;56996;48.138;11.538;2024-03-08T03:13:44;1.70;75.85
69731;SHT31;56996;48.138;11.538;2024-03-08T03:16:18;1.71;75.84
69731;SHT31;56996;48.138;11.538;2024-03-08T03:18:49;1.68;76.03
69731;SHT31;56996;48.138;11.538;2024-03-08T03:21:16;1.68;76.10
69731;SHT31;56996;48.138;11.538;2024-03-08T03:23:43;1.67;76.08
69731;SHT31;56996;48.138;11.538;2024-03-08T03:26:10;1.66;76.12
69731;SHT31;56996;48.138;11.538;2024-03-08T03:28:40;1.66;76.17
69731;SHT31;56996;48.138;11.538;2024-03-08T03:31:06;1.64;76.20
69731;SHT31;56996;48.138;11.538;2024-03-08T03:33:36;1.64;76.31
69731;SHT31;56996;48.138;11.538;2024-03-08T03:36:03;1.62;76.33
69731;SHT31;56996;48.138;11.538;2024-03-08T03:38:31;1.62;76.47
69731;SHT31;56996;48.138;11.538;2024-03-08T03:40:58;1.59;76.49
69731;SHT31;56996;48.138;11.538;2024-03-08T03:43:32;1.59;76.47
69731;SHT31;56996;48.138;11.538;2024-03-08T03:45:59;1.58;76.41
69731;SHT31;56996;48.138;11.538;2024-03-08T03:48:26;1.56;76.60
69731;SHT31;56996;48.138;11.538;2024-03-08T03:50:53;1.55;76.61
69731;SHT31;56996;48.138;11.538;2024-03-08T03:53:20;1.56;76.61
69731;SHT31;56996;48.138;11.538;2024-03-08T03:55:47;1.54;76.69
69731;SHT31;56996;48.138;11.538;2024-03-08T03:58:13;1.56;76.62
69731;SHT31;56996;48.138;11.538;2024-03-08T04:00:40;1.53;76.88
69731;SHT31;56996;48.138;11.538;2024-03-08T04:03:07;1.52;76.80
69731;SHT31;56996;48.138;11.538;2024-03-08T04:05:35;1.51;76.88
69731;SHT31;56996;48.138;11.538;2024-03-08T04:08:02;1.49;76.91
69731;SHT31;56996;48.138;11.538;2024-03-08T04:10:29;1.48;76.96
69731;SHT31;56996;48.138;11.538;2024-03-08T04:12:56;1.46;77.04
69731;SHT31;56996;48.138;11.538;2024-03-08T04:15:23;1.45;77.08
69731;SHT31;56996;48.138;11.538;2024-03-08T04:17:50;1.43;77.15
69731;SHT31;56996;48.138;11.538;2024-03-08T04:20:17;1.41;77.28
69731;SHT31;56996;48.138;11.538;2024-03-08T04:22:44;1.42;77.23
69731;SHT31;56996;48.138;11.538;2024-03-08T04:25:15;1.40;77.29
69731;SHT31;56996;48.138;11.538;2024-03-08T04:27:42;1.38;77.38
69731;SHT31;56996;48.138;11.538;2024-03-08T04:30:09;1.36;77.57
69731;SHT31;56996;48.138;11.538;2024-03-08T04:32:36;1.35;77.56
69731;SHT31;56996;48.138;11.538;2024-03-08T04:35:04;1.36;77.50
69731;SHT31;56996;48.138;11.538;2024-03-08T04:37:31;1.34;77.60
69731;SHT31;56996;48.138;11.538;2024-03-08T04:39:58;1.33;77.59
69731;SHT31;56996;48.138;11.538;2024-03-08T04:42:26;1.32;77.61
69731;SHT31;56996;48.138;11.538;2024-03-08T04:44:55;1.34;77.57
69731;SHT31;56996;48.138;11.538;2024-03-08T04:47:22;1.34;77.52
69731;SHT31;56996;48.138;11.538;2024-03-08T04:49:48;1.37;77.52
69731;SHT31;56996;48.138;11.538;2024-03-08T04:52:16;1.36;77.59
69731;SHT31;56996;48.138;11.538;2024-03-08T04:54:43;1.35;77.68
69731;SHT31;56996;48.138;11.538;2024-03-08T04:57:13;1.36;77.61
69731;SHT31;56996;48.138;11.538;2024-03-08T04:59:40;1.39;77.64
69731;SHT31;56996;48.138;11.538;2024-03-08T05:02:07;1.44;77.56
69731;SHT31;56996;48.138;11.538;2024-03-08T05:04:33;1.38;77.87
69731;SHT31;56996;48.138;11.538;2024-03-08T05:07:00;1.33;77.90
69731;SHT31;56996;48.138;11.538;2024-03-08T05:09:27;1.35;77.96
69731;SHT31;56996;48.138;11.538;2024-03-08T05:11:58;1.38;77.77
69731;SHT31;56996;48.138;11.538;2024-03-08T05:14:25;1.39;77.66
69731;SHT31;56996;48.138;11.538;2024-03-08T05:16:52;1.41;77.64
69731;SHT31;56996;48.138;11.538;2024-03-08T05:19:19;1.41;77.60
69731;SHT31;56996;48.138;11.538;2024-03-08T05:21:47;1.42;77.57
69731;SHT31;56996;48.138;11.538;2024-03-08T05:24:16;1.44;77.50
69731;SHT31;56996;48.138;11.538;2024-03-08T05:26:45;1.45;77.49
69731;SHT31;56996;48.138;11.538;2024-03-08T05:29:14;1.46;77.40
69731;SHT31;56996;48.138;11.538;2024-03-08T05:34:19;1.51;77.29
69731;SHT31;56996;48.138;11.538;2024-03-08T05:36:46;1.51;77.23
69731;SHT31;56996;48.138;11.538;2024-03-08T05:39:13;1.52;77.14
69731;SHT31;56996;48.138;11.538;2024-03-08T05:41:40;1.53;77.13
69731;SHT31;56996;48.138;11.538;2024-03-08T05:44:08;1.54;77.13
69731;SHT31;56996;48.138;11.538;2024-03-08T05:46:35;1.56;77.10
69731;SHT31;56996;48.138;11.538;2024-03-08T05:49:03;1.59;77.32
69731;SHT31;56996;48.138;11.538;2024-03-08T05:51:35;1.62;77.17
69731;SHT31;56996;48.138;11.538;2024-03-08T05:54:04;1.63;76.92
69731;SHT31;56996;48.138;11.538;2024-03-08T05:56:33;1.65;76.94
69731;SHT31;56996;48.138;11.538;2024-03-08T05:59:00;1.67;76.93
69731;SHT31;56996;48.138;11.538;2024-03-08T06:01:27;1.67;76.80
69731;SHT31;56996;48.138;11.538;2024-03-08T06:03:54;1.68;76.81
69731;SHT31;56996;48.138;11.538;2024-03-08T06:06:23;1.64;76.82
69731;SHT31;56996;48.138;11.538;2024-03-08T06:08:51;1.65;76.78
69731;SHT31;56996;48.138;11.538;2024-03-08T06:11:18;1.63;76.85
69731;SHT31;56996;48.138;11.538;2024-03-08T06:13:49;1.66;76.83
69731;SHT31;56996;48.138;11.538;2024-03-08T06:16:16;1.70;76.60
69731;SHT31;56996;48.138;11.538;2024-03-08T06:18:43;1.71;76.56
69731;SHT31;56996;48.138;11.538;2024-03-08T06:21:10;1.72;76.49
69731;SHT31;56996;48.138;11.538;2024-03-08T06:23:38;1.75;76.47
69731;SHT31;56996;48.138;11.538;2024-03-08T06:26:06;1.81;76.36
69731;SHT31;56996;48.138;11.538;2024-03-08T06:28:34;1.85;76.23
69731;SHT31;56996;48.138;11.538;2024-03-08T06:31:03;1.89;76.18
69731;SHT31;56996;48.138;11.538;2024-03-08T06:33:30;1.97;75.92
69731;SHT31;56996;48.138;11.538;2024-03-08T06:35:59;2.03;75.67
69731;SHT31;56996;48.138;11.538;2024-03-08T06:38:26;2.03;75.48
69731;SHT31;56996;48.138;11.538;2024-03-08T06:40:53;2.07;75.35
69731;SHT31;56996;48.138;11.538;2024-03-08T06:43:21;2.12;75.24
69731;SHT31;56996;48.138;11.538;2024-03-08T06:45:48;2.20;75.15
69731;SHT31;56996;48.138;11.538;2024-03-08T06:48:18;2.09;75.02
69731;SHT31;56996;48.138;11.538;2024-03-08T06:50:46;2.03;75.41
69731;SHT31;56996;48.138;11.538;2024-03-08T06:53:14;2.06;75.24
69731;SHT31;56996;48.138;11.538;2024-03-08T06:55:42;2.15;75.03
69731;SHT31;56996;48.138;11.538;2024-03-08T06:58:08;2.13;74.91
69731;SHT31;56996;48.138;11.538;2024-03-08T07:00:37;2.10;75.16
69731;SHT31;56996;48.138;11.538;2024-03-08T07:03:04;2.20;75.03
69731;SHT31;56996;48.138;11.538;2024-03-08T07:05:34;2.31;74.73
69731;SHT31;56996;48.138;11.538;2024-03-08T07:08:01;2.37;74.32
69731;SHT31;56996;48.138;11.538;2024-03-08T07:10:28;2.44;74.17
69731;SHT31;56996;48.138;11.538;2024-03-08T07:12:55;2.48;73.88
69731;SHT31;56996;48.138;11.538;2024-03-08T07:15:22;2.53;73.86
69731;SHT31;56996;48.138;11.538;2024-03-08T07:17:50;2.62;73.80
69731;SHT31;56996;48.138;11.538;2024-03-08T07:20:19;2.67;73.34
69731;SHT31;56996;48.138;11.538;2024-03-08T07:22:46;2.65;73.18
69731;SHT31;56996;48.138;11.538;2024-03-08T07:25:14;2.65;73.47
69731;SHT31;56996;48.138;11.538;2024-03-08T07:27:48;2.74;73.23
69731;SHT31;56996;48.138;11.538;2024-03-08T07:30:24;2.77;72.87
69731;SHT31;56996;48.138;11.538;2024-03-08T07:33:10;2.78;73.30
69731;SHT31;56996;48.138;11.538;2024-03-08T07:35:39;2.94;72.92
69731;SHT31;56996;48.138;11.538;2024-03-08T07:38:08;2.94;72.55
69731;SHT31;56996;48.138;11.538;2024-03-08T07:40:37;2.90;72.55
69731;SHT31;56996;48.138;11.538;2024-03-08T07:43:07;2.93;72.50
69731;SHT31;56996;48.138;11.538;2024-03-08T07:45:34;3.03;72.38
69731;SHT31;56996;48.138;11.538;2024-03-08T07:48:02;3.10;71.76
69731;SHT31;56996;48.138;11.538;2024-03-08T07:50:30;3.05;72.00
69731;SHT31;56996;48.138;11.538;2024-03-08T07:52:59;3.19;71.99
69731;SHT31;56996;48.138;11.538;2024-03-08T07:55:26;3.32;71.47
69731;SHT31;56996;48.138;11.538;2024-03-08T07:57:53;3.43;71.31
69731;SHT31;56996;48.138;11.538;2024-03-08T08:00:19;3.60;71.01
69731;SHT31;56996;48.138;11.538;2024-03-08T08:02:46;3.79;70.52
69731;SHT31;56996;48.138;11.538;2024-03-08T08:05:15;3.93;69.88
69731;SHT31;56996;48.138;11.538;2024-03-08T08:07:44;4.08;69.57
69731;SHT31;56996;48.138;11.538;2024-03-08T08:10:15;4.19;69.22
69731;SHT31;56996;48.138;11.538;2024-03-08T08:12:48;4.37;69.08
69731;SHT31;56996;48.138;11.538;2024-03-08T08:15:15;4.49;68.49
69731;SHT31;56996;48.138;11.538;2024-03-08T08:17:42;4.50;68.25
69731;SHT31;56996;48.138;11.538;2024-03-08T08:20:14;4.59;68.25
69731;SHT31;56996;48.138;11.538;2024-03-08T08:22:42;4.70;67.74
69731;SHT31;56996;48.138;11.538;2024-03-08T08:25:12;4.82;67.53
69731;SHT31;56996;48.138;11.538;2024-03-08T08:27:40;4.83;66.94
69731;SHT31;56996;48.138;11.538;2024-03-08T08:30:06;4.83;67.08
69731;SHT31;56996;48.138;11.538;2024-03-08T08:32:38;5.00;66.76
69731;SHT31;56996;48.138;11.538;2024-03-08T08:35:10;5.22;66.61
69731;SHT31;56996;48.138;11.538;2024-03-08T08:37:39;5.52;66.11
69731;SHT31;56996;48.138;11.538;2024-03-08T08:40:06;5.74;65.26
69731;SHT31;56996;48.138;11.538;2024-03-08T08:42:41;5.78;64.93
69731;SHT31;56996;48.138;11.538;2024-03-08T08:45:08;5.80;64.92
69731;SHT31;56996;48.138;11.538;2024-03-08T08:47:43;5.89;64.85
69731;SHT31;56996;48.138;11.538;2024-03-08T08:50:12;5.96;64.53
69731;SHT31;56996;48.138;11.538;2024-03-08T08:52:40;6.04;64.41
69731;SHT31;56996;48.138;11.538;2024-03-08T08:55:07;6.44;63.78
69731;SHT31;56996;48.138;11.538;2024-03-08T08:57:34;6.86;62.43
69731;SHT31;56996;48.138;11.538;2024-03-08T09:00:02;7.04;61.18
69731;SHT31;56996;48.138;11.538;2024-03-08T09:02:34;7.13;61.49
69731;SHT31;56996;48.138;11.538;2024-03-08T09:05:01;7.34;61.11
69731;SHT31;56996;48.138;11.538;2024-03-08T09:07:28;7.76;59.77
69731;SHT31;56996;48.138;11.538;2024-03-08T09:09:55;7.90;59.36
69731;SHT31;56996;48.138;11.538;2024-03-08T09:12:24;8.32;58.32
69731;SHT31;56996;48.138;11.538;2024-03-08T09:14:51;8.91;57.30
69731;SHT31;56996;48.138;11.538;2024-03-08T09:17:21;9.57;55.96
69731;SHT31;56996;48.138;11.538;2024-03-08T09:19:48;10.18;53.63
69731;SHT31;56996;48.138;11.538;2024-03-08T09:22:16;10.38;53.02
69731;SHT31;56996;48.138;11.538;2024-03-08T09:24:42;10.87;52.62
69731;SHT31;56996;48.138;11.538;2024-03-08T09:27:09;11.46;51.31
69731;SHT31;56996;48.138;11.538;2024-03-08T09:29:36;11.90;49.96
69731;SHT31;56996;48.138;11.538;2024-03-08T09:32:03;11.97;48.84
69731;SHT31;56996;48.138;11.538;2024-03-08T09:34:30;12.11;49.10
69731;SHT31;56996;48.138;11.538;2024-03-08T09:37:03;12.43;47.52
69731;SHT31;56996;48.138;11.538;2024-03-08T09:39:30;12.51;47.61
69731;SHT31;56996;48.138;11.538;2024-03-08T09:41:59;12.89;47.43
69731;SHT31;56996;48.138;11.538;2024-03-08T09:44:26;13.00;45.27
69731;SHT31;56996;48.138;11.538;2024-03-08T09:46:55;12.82;47.24
69731;SHT31;56996;48.138;11.538;2024-03-08T09:49:22;13.38;47.21
69731;SHT31;56996;48.138;11.538;2024-03-08T09:51:49;13.78;45.40
69731;SHT31;56996;48.138;11.538;2024-03-08T09:54:19;13.85;44.24
69731;SHT31;56996;48.138;11.538;2024-03-08T09:56:51;13.93;44.74
69731;SHT31;56996;48.138;11.538;2024-03-08T09:59:18;13.73;42.82
69731;SHT31;56996;48.138;11.538;2024-03-08T10:01:54;13.31;44.97
69731;SHT31;56996;48.138;11.538;2024-03-08T10:04:22;13.40;44.77
69731;SHT31;56996;48.138;11.538;2024-03-08T10:06:49;13.38;44.63
69731;SHT31;56996;48.138;11.538;2024-03-08T10:09:16;13.26;44.34
69731;SHT31;56996;48.138;11.538;2024-03-08T10:11:43;13.06;44.96
69731;SHT31;56996;48.138;11.538;2024-03-08T10:14:10;13.04;44.03
69731;SHT31;56996;48.138;11.538;2024-03-08T10:16:38;13.00;44.21
69731;SHT31;56996;48.138;11.538;2024-03-08T10:19:06;12.94;45.13
69731;SHT31;56996;48.138;11.538;2024-03-08T10:21:34;13.23;44.52
69731;SHT31;56996;48.138;11.538;2024-03-08T10:24:02;13.17;44.65
69731;SHT31;56996;48.138;11.538;2024-03-08T10:26:29;13.16;44.20
69731;SHT31;56996;48.138;11.538;2024-03-08T10:28:57;13.32;43.93
69731;SHT31;56996;48.138;11.538;2024-03-08T10:31:24;13.27;43.80
69731;SHT31;56996;48.138;11.538;2024-03-08T10:33:51;13.19;44.10
69731;SHT31;56996;48.138;11.538;2024-03-08T10:36:18;13.30;43.65
69731;SHT31;56996;48.138;11.538;2024-03-08T10:38:45;13.22;43.82
69731;SHT31;56996;48.138;11.538;2024-03-08T10:41:15;13.32;43.31
69731;SHT31;56996;48.138;11.538;2024-03-08T10:49:36;12.63;44.80
69731;SHT31;56996;48.138;11.538;2024-03-08T10:52:06;12.56;44.68
69731;SHT31;56996;48.138;11.538;2024-03-08T10:54:37;12.44;45.15
69731;SHT31;56996;48.138;11.538;2024-03-08T10:57:12;12.41;44.90
69731;SHT31;56996;48.138;11.538;2024-03-08T10:59:40;12.21;44.71
69731;SHT31;56996;48.138;11.538;2024-03-08T11:02:12;12.02;45.29
69731;SHT31;56996;48.138;11.538;2024-03-08T11:04:41;11.94;45.16
69731;SHT31;56996;48.138;11.538;2024-03-08T11:07:13;11.75;45.44
69731;SHT31;56996;48.138;11.538;2024-03-08T11:09:44;11.42;46.28
69731;SHT31;56996;48.138;11.538;2024-03-08T11:12:35;11.35;46.90
69731;SHT31;56996;48.138;11.538;2024-03-08T11:15:21;11.50;46.83
69731;SHT31;56996;48.138;11.538;2024-03-08T11:17:50;11.29;46.36
69731;SHT31;56996;48.138;11.538;2024-03-08T11:20:20;11.20;47.37
69731;SHT31;56996;48.138;11.538;2024-03-08T11:22:49;11.19;46.58
69731;SHT31;56996;48.138;11.538;2024-03-08T11:25:30;11.05;46.91
69731;SHT31;56996;48.138;11.538;2024-03-08T11:28:06;10.99;47.60
69731;SHT31;56996;48.138;11.538;2024-03-08T11:30:46;11.02;47.59
69731;SHT31;56996;48.138;11.538;2024-03-08T11:33:40;11.08;47.59
69731;SHT31;56996;48.138;11.538;2024-03-08T11:38:43;10.92;47.60
69731;SHT31;56996;48.138;11.538;2024-03-08T11:41:13;10.91;47.98
69731;SHT31;56996;48.138;11.538;2024-03-08T11:43:44;10.89;47.70
69731;SHT31;56996;48.138;11.538;2024-03-08T11:46:13;10.83;48.18
69731;SHT31;56996;48.138;11.538;2024-03-08T11:48:42;10.94;48.23
69731;SHT31;56996;48.138;11.538;2024-03-08T11:51:11;11.13;48.05
69731;SHT31;56996;48.138;11.538;2024-03-08T11:53:38;11.18;47.51
69731;SHT31;56996;48.138;11.538;2024-03-08T11:56:09;11.24;47.72
69731;SHT31;56996;48.138;11.538;2024-03-08T11:58:39;11.25;47.64
69731;SHT31;56996;48.138;11.538;2024-03-08T12:01:07;11.32;47.84
69731;SHT31;56996;48.138;11.538;2024-03-08T12:03:39;11.36;47.02
69731;SHT31;56996;48.138;11.538;2024-03-08T12:06:09;11.07;47.26
69731;SHT31;56996;48.138;11.538;2024-03-08T12:08:36;11.11;47.21
69731;SHT31;56996;48.138;11.538;2024-03-08T12:11:04;11.11;47.41
69731;SHT31;56996;48.138;11.538;2024-03-08T12:13:32;11.21;47.29
69731;SHT31;56996;48.138;11.538;2024-03-08T12:16:02;11.16;47.49
69731;SHT31;56996;48.138;11.538;2024-03-08T12:18:33;11.08;47.34
69731;SHT31;56996;48.138;11.538;2024-03-08T12:21:08;11.23;47.52
69731;SHT31;56996;48.138;11.538;2024-03-08T12:23:46;11.34;47.10
69731;SHT31;56996;48.138;11.538;2024-03-08T12:26:24;11.42;46.47
69731;SHT31;56996;48.138;11.538;2024-03-08T12:28:52;11.48;46.80
69731;SHT31;56996;48.138;11.538;2024-03-08T12:31:20;11.62;46.87
69731;SHT31;56996;48.138;11.538;2024-03-08T12:36:23;11.73;47.49
69731;SHT31;56996;48.138;11.538;2024-03-08T12:38:50;11.76;46.44
69731;SHT31;56996;48.138;11.538;2024-03-08T12:41:20;11.73;46.66
69731;SHT31;56996;48.138;11.538;2024-03-08T12:43:48;11.60;47.45
69731;SHT31;56996;48.138;11.538;2024-03-08T12:46:18;11.53;47.72
69731;SHT31;56996;48.138;11.538;2024-03-08T12:48:47;11.46;47.88
69731;SHT31;56996;48.138;11.538;2024-03-08T12:51:17;11.41;47.92
69731;SHT31;56996;48.138;11.538;2024-03-08T12:53:45;11.28;47.99
69731;SHT31;56996;48.138;11.538;2024-03-08T12:56:19;11.27;48.13
69731;SHT31;56996;48.138;11.538;2024-03-08T12:58:55;11.35;47.93
69731;SHT31;56996;48.138;11.538;2024-03-08T13:01:23;11.37;47.91
69731;SHT31;56996;48.138;11.538;2024-03-08T13:03:50;11.40;48.00
69731;SHT31;56996;48.138;11.538;2024-03-08T13:06:17;11.56;47.90
69731;SHT31;56996;48.138;11.538;2024-03-08T13:08:43;11.66;47.72
69731;SHT31;56996;48.138;11.538;2024-03-08T13:11:10;11.75;47.35
69731;SHT31;56996;48.138;11.538;2024-03-08T13:13:38;11.64;47.50
69731;SHT31;56996;48.138;11.538;2024-03-08T13:16:07;11.80;47.78
69731;SHT31;56996;48.138;11.538;2024-03-08T13:18:35;11.94;47.10
69731;SHT31;56996;48.138;11.538;2024-03-08T13:21:02;11.91;46.90
69731;SHT31;56996;48.138;11.538;2024-03-08T13:23:33;11.97;46.90
69731;SHT31;56996;48.138;11.538;2024-03-08T13:26:06;12.08;46.60
69731;SHT31;56996;48.138;11.538;2024-03-08T13:28:34;12.10;46.34
69731;SHT31;56996;48.138;11.538;2024-03-08T13:31:04;12.17;45.79
69731;SHT31;56996;48.138;11.538;2024-03-08T13:33:36;12.09;45.99
69731;SHT31;56996;48.138;11.538;2024-03-08T13:36:05;12.18;46.00
69731;SHT31;56996;48.138;11.538;2024-03-08T13:38:41;12.29;45.87
69731;SHT31;56996;48.138;11.538;2024-03-08T13:41:12;12.40;45.61
69731;SHT31;56996;48.138;11.538;2024-03-08T13:43:41;12.46;45.29
69731;SHT31;56996;48.138;11.538;2024-03-08T13:46:08;12.37;45.02
69731;SHT31;56996;48.138;11.538;2024-03-08T13:48:36;12.20;45.11
69731;SHT31;56996;48.138;11.538;2024-03-08T13:51:07;12.15;45.35
69731;SHT31;56996;48.138;11.538;2024-03-08T13:53:39;12.11;45.61
69731;SHT31;56996;48.138;11.538;2024-03-08T13:56:06;12.09;44.88
69731;SHT31;56996;48.138;11.538;2024-03-08T13:58:37;11.93;44.93
69731;SHT31;56996;48.138;11.538;2024-03-08T14:01:06;11.85;45.01
69731;SHT31;56996;48.138;11.538;2024-03-08T14:03:39;11.82;45.11
69731;SHT31;56996;48.138;11.538;2024-03-08T14:06:09;11.90;45.36
69731;SHT31;56996;48.138;11.538;2024-03-08T14:08:50;11.92;44.79
69731;SHT31;56996;48.138;11.538;2024-03-08T14:11:17;11.81;44.87
69731;SHT31;56996;48.138;11.538;2024-03-08T14:13:46;11.73;44.94
69731;SHT31;56996;48.138;11.538;2024-03-08T14:16:13;11.63;45.07
69731;SHT31;56996;48.138;11.538;2024-03-08T14:18:40;11.56;45.11
69731;SHT31;56996;48.138;11.538;2024-03-08T14:21:08;11.58;45.60
69731;SHT31;56996;48.138;11.538;2024-03-08T14:23:35;11.61;45.48
69731;SHT31;56996;48.138;11.538;2024-03-08T14:26:03;11.62;45.56
69731;SHT31;56996;48.138;11.538;2024-03-08T14:28:31;11.63;45.27
69731;SHT31;56996;48.138;11.538;2024-03-08T14:30:58;11.67;45.47
69731;SHT31;56996;48.138;11.538;2024-03-08T14:33:32;11.71;45.26
69731;SHT31;56996;48.138;11.538;2024-03-08T14:36:00;11.65;45.48
69731;SHT31;56996;48.138;11.538;2024-03-08T14:38:27;11.64;45.44
69731;SHT31;56996;48.138;11.538;2024-03-08T14:40:54;11.52;45.53
69731;SHT31;56996;48.138;11.538;2024-03-08T14:43:22;11.36;45.85
69731;SHT31;56996;48.138;11.538;2024-03-08T14:45:49;11.31;45.96
69731;SHT31;56996;48.138;11.538;2024-03-08T14:48:17;11.29;46.12
69731;SHT31;56996;48.138;11.538;2024-03-08T14:50:43;11.30;46.22
69731;SHT31;56996;48.138;11.538;2024-03-08T14:53:10;11.31;46.04
69731;SHT31;56996;48.138;11.538;2024-03-08T14:55:39;11.25;46.08
69731;SHT31;56996;48.138;11.538;2024-03-08T14:58:05;11.21;46.03
69731;SHT31;56996;48.138;11.538;2024-03-08T15:00:32;11.19;45.92
69731;SHT31;56996;48.138;11.538;2024-03-08T15:03:04;11.19;46.02
69731;SHT31;56996;48.138;11.538;2024-03-08T15:05:36;11.18;45.95
69731;SHT31;56996;48.138;11.538;2024-03-08T15:08:08;11.11;46.09
69731;SHT31;56996;48.138;11.538;2024-03-08T15:10:38;11.05;46.13
69731;SHT31;56996;48.138;11.538;2024-03-08T15:13:07;10.92;46.26
69731;SHT31;56996;48.138;11.538;2024-03-08T15:15:41;10.81;46.55
69731;SHT31;56996;48.138;11.538;2024-03-08T15:18:12;10.78;46.92
69731;SHT31;56996;48.138;11.538;2024-03-08T15:20:39;10.76;47.21
69731;SHT31;56996;48.138;11.538;2024-03-08T15:23:06;10.70;47.24
69731;SHT31;56996;48.138;11.538;2024-03-08T15:25:36;10.57;47.41
69731;SHT31;56996;48.138;11.538;2024-03-08T15:28:05;10.54;47.69
69731;SHT31;56996;48.138;11.538;2024-03-08T15:30:39;10.59;47.64
69731;SHT31;56996;48.138;11.538;2024-03-08T15:33:06;10.56;47.51
69731;SHT31;56996;48.138;11.538;2024-03-08T15:35:37;10.53;47.66
69731;SHT31;56996;48.138;11.538;2024-03-08T15:38:04;10.51;47.79
69731;SHT31;56996;48.138;11.538;2024-03-08T15:40:31;10.46;47.74
69731;SHT31;56996;48.138;11.538;2024-03-08T15:42:59;10.40;47.95
69731;SHT31;56996;48.138;11.538;2024-03-08T15:45:26;10.38;47.85
69731;SHT31;56996;48.138;11.538;2024-03-08T15:47:53;10.36;47.86